RLTS3 YTEM-YTEM

Flight info

Callsign RLTS3
Flight time 0h 26m
Altitude 6000
Route DCT
Aircraft PC21/L-SDFGTUVY/C

Departure

Time 2026-05-07 11:13
Airport Temora Airport (YTEM)

Arrival

Time 2026-05-07 11:39
Airport Temora Airport (YTEM)
Time Latitude Longitude Altitude Speed Heading
2026-05-07 10:52 -34.42522 147.51525 912 ft 0 kts 97°
2026-05-07 11:07 -34.42522 147.51533 913 ft 6 kts 81°
2026-05-07 11:07 -34.42471 147.51529 912 ft 0 kts 327°
2026-05-07 11:08 -34.42455 147.51488 911 ft 8 kts 265°
2026-05-07 11:08 -34.42452 147.51420 910 ft 8 kts 280°
2026-05-07 11:08 -34.42487 147.51357 910 ft 14 kts 189°
2026-05-07 11:09 -34.42563 147.51344 913 ft 13 kts 187°
2026-05-07 11:09 -34.42670 147.51329 916 ft 14 kts 187°
2026-05-07 11:09 -34.42754 147.51313 918 ft 11 kts 190°
2026-05-07 11:09 -34.42844 147.51290 923 ft 15 kts 189°
2026-05-07 11:10 -34.42926 147.51273 922 ft 10 kts 194°
2026-05-07 11:10 -34.42991 147.51256 923 ft 8 kts 190°
2026-05-07 11:10 -34.43015 147.51252 923 ft 1 kts 187°
2026-05-07 11:10 -34.43019 147.51264 923 ft 2 kts 38°
2026-05-07 11:11 -34.42994 147.51269 925 ft 0 kts
2026-05-07 11:12 -34.42990 147.51269 924 ft 7 kts
2026-05-07 11:12 -34.42694 147.51329 916 ft 80 kts
2026-05-07 11:12 -34.41975 147.51471 1002 ft 120 kts 10°
2026-05-07 11:12 -34.41073 147.51706 1313 ft 151 kts 15°
2026-05-07 11:13 -34.40004 147.52362 1736 ft 196 kts 40°
2026-05-07 11:13 -34.39444 147.53986 2068 ft 242 kts 104°
2026-05-07 11:13 -34.40835 147.55011 2109 ft 273 kts 185°
2026-05-07 11:13 -34.42669 147.54982 2216 ft 270 kts 161°
2026-05-07 11:14 -34.43775 147.56630 2358 ft 238 kts 99°
2026-05-07 11:14 -34.43411 147.58532 2451 ft 242 kts 54°
2026-05-07 11:14 -34.42017 147.59621 2349 ft 243 kts 11°
2026-05-07 11:14 -34.40448 147.59456 2623 ft 222 kts 342°
2026-05-07 11:15 -34.38925 147.59336 2840 ft 234 kts 21°
2026-05-07 11:15 -34.37951 147.60905 2492 ft 254 kts 87°
2026-05-07 11:15 -34.38794 147.62568 2259 ft 239 kts 161°
2026-05-07 11:15 -34.40236 147.62003 1865 ft 234 kts 233°
2026-05-07 11:16 -34.41025 147.60323 1940 ft 226 kts 243°
2026-05-07 11:16 -34.41699 147.58630 1923 ft 222 kts 247°
2026-05-07 11:16 -34.42261 147.56874 1794 ft 225 kts 251°
2026-05-07 11:16 -34.42638 147.54998 1566 ft 234 kts 263°
2026-05-07 11:17 -34.42653 147.53061 1356 ft 241 kts 276°
2026-05-07 11:17 -34.42399 147.51047 1197 ft 237 kts 281°
2026-05-07 11:17 -34.41853 147.49277 1749 ft 217 kts 324°
2026-05-07 11:17 -34.40669 147.49962 1863 ft 245 kts 91°
2026-05-07 11:18 -34.41833 147.51157 1315 ft 250 kts 180°
2026-05-07 11:18 -34.43549 147.50860 1354 ft 242 kts 190°
2026-05-07 11:18 -34.45052 147.50321 2085 ft 207 kts 224°
2026-05-07 11:18 -34.44681 147.49002 2043 ft 242 kts 353°
2026-05-07 11:19 -34.43280 147.50312 1269 ft 284 kts 57°
2026-05-07 11:19 -34.41787 147.51408 1486 ft 253 kts 352°
2026-05-07 11:19 -34.40473 147.50199 1668 ft 236 kts 304°
2026-05-07 11:19 -34.39176 147.49388 2312 ft 240 kts 23°
2026-05-07 11:20 -34.38984 147.51125 1795 ft 246 kts 144°
2026-05-07 11:20 -34.40694 147.51311 1325 ft 257 kts 187°
2026-05-07 11:20 -34.42448 147.51040 1244 ft 250 kts 188°
2026-05-07 11:20 -34.42941 147.52407 1771 ft 197 kts 98°
2026-05-07 11:21 -34.43966 147.53093 1712 ft 216 kts 208°
2026-05-07 11:21 -34.44724 147.51493 1734 ft 241 kts 268°
2026-05-07 11:21 -34.44640 147.49389 1680 ft 260 kts 274°
2026-05-07 11:21 -34.43703 147.47830 1684 ft 268 kts
2026-05-07 11:22 -34.42419 147.49366 1382 ft 285 kts 81°
2026-05-07 11:22 -34.43043 147.51188 1265 ft 264 kts 188°
2026-05-07 11:22 -34.43931 147.50974 3370 ft 129 kts
2026-05-07 11:22 -34.42689 147.51280 1196 ft 269 kts 12°
2026-05-07 11:23 -34.42032 147.50326 1275 ft 248 kts 200°
2026-05-07 11:23 -34.42445 147.51426 1243 ft 241 kts
2026-05-07 11:23 -34.40996 147.52248 1675 ft 245 kts 55°
2026-05-07 11:23 -34.40656 147.54303 1600 ft 263 kts 106°
2026-05-07 11:24 -34.41935 147.55481 2036 ft 254 kts 193°
2026-05-07 11:24 -34.42996 147.53867 2002 ft 265 kts 259°
2026-05-07 11:24 -34.42878 147.51525 1377 ft 293 kts 278°
2026-05-07 11:24 -34.42677 147.49914 3822 ft 34 kts 161°
2026-05-07 11:25 -34.42704 147.50036 2097 ft 215 kts 12°
2026-05-07 11:25 -34.41155 147.51185 1858 ft 270 kts 52°
2026-05-07 11:25 -34.40509 147.53280 1808 ft 283 kts 87°
2026-05-07 11:25 -34.41035 147.55553 1879 ft 285 kts 120°
2026-05-07 11:26 -34.42518 147.55799 1737 ft 253 kts 189°
2026-05-07 11:26 -34.44323 147.55424 1712 ft 274 kts 222°
2026-05-07 11:26 -34.45068 147.53617 1673 ft 234 kts 255°
2026-05-07 11:26 -34.45374 147.51718 1612 ft 227 kts 264°
2026-05-07 11:27 -34.45351 147.49778 1609 ft 231 kts 275°
2026-05-07 11:27 -34.44876 147.47972 1670 ft 237 kts 318°
2026-05-07 11:27 -34.43289 147.47742 1459 ft 252 kts 28°
2026-05-07 11:27 -34.42473 147.49561 1284 ft 256 kts 91°
2026-05-07 11:28 -34.42458 147.51502 1953 ft 172 kts 42°
2026-05-07 11:28 -34.42327 147.52496 2286 ft 202 kts 152°
2026-05-07 11:28 -34.43644 147.53978 1648 ft 287 kts 137°
2026-05-07 11:28 -34.45329 147.55208 1772 ft 292 kts 110°
2026-05-07 11:29 -34.44210 147.56726 1799 ft 253 kts 354°
2026-05-07 11:29 -34.43146 147.55348 1424 ft 237 kts 281°
2026-05-07 11:29 -34.42891 147.53370 1294 ft 239 kts 279°
2026-05-07 11:29 -34.42625 147.51347 1131 ft 247 kts 279°
2026-05-07 11:30 -34.42189 147.49450 1776 ft 220 kts 312°
2026-05-07 11:30 -34.40961 147.49894 2001 ft 255 kts 79°
2026-05-07 11:30 -34.42043 147.51202 1265 ft 256 kts 181°
2026-05-07 11:30 -34.43773 147.50850 1473 ft 239 kts 192°
2026-05-07 11:31 -34.45015 147.50019 2295 ft 196 kts 257°
2026-05-07 11:31 -34.44023 147.49099 1836 ft 264 kts 23°
2026-05-07 11:31 -34.42778 147.50889 1289 ft 273 kts 45°
2026-05-07 11:31 -34.41116 147.51113 1429 ft 252 kts 322°
2026-05-07 11:32 -34.38856 147.48807 2136 ft 250 kts 27°
2026-05-07 11:32 -34.38470 147.50619 1934 ft 250 kts 122°
2026-05-07 11:32 -34.39991 147.51437 1461 ft 250 kts 180°
2026-05-07 11:33 -34.41743 147.51222 1233 ft 254 kts 188°
2026-05-07 11:33 -34.42722 147.52080 1513 ft 222 kts 93°
2026-05-07 11:33 -34.42827 147.54000 1594 ft 233 kts 94°
2026-05-07 11:33 -34.42968 147.55977 1815 ft 236 kts 96°
2026-05-07 11:34 -34.43081 147.57990 1919 ft 244 kts 85°
2026-05-07 11:34 -34.42460 147.59850 2056 ft 243 kts 41°
2026-05-07 11:34 -34.40903 147.60124 2025 ft 245 kts 325°
2026-05-07 11:34 -34.40290 147.58265 1711 ft 257 kts 275°
2026-05-07 11:35 -34.40168 147.56115 1697 ft 253 kts 271°
2026-05-07 11:35 -34.40129 147.53999 1647 ft 254 kts 271°
2026-05-07 11:35 -34.40348 147.51903 1479 ft 262 kts 217°
2026-05-07 11:35 -34.42070 147.52132 1279 ft 266 kts 150°
2026-05-07 11:36 -34.43635 147.53202 1649 ft 247 kts 153°
2026-05-07 11:36 -34.45245 147.53793 1867 ft 241 kts 178°
2026-05-07 11:36 -34.46850 147.53309 1941 ft 242 kts 212°
2026-05-07 11:36 -34.47864 147.51728 1862 ft 247 kts 257°
2026-05-07 11:37 -34.47282 147.49972 1753 ft 250 kts 340°
2026-05-07 11:37 -34.45682 147.50502 1501 ft 260 kts 31°
2026-05-07 11:37 -34.43931 147.51068 1238 ft 267 kts
2026-05-07 11:37 -34.42138 147.51279 1752 ft 227 kts 321°
2026-05-07 11:38 -34.42828 147.50320 1828 ft 186 kts 189°
2026-05-07 11:38 -34.43893 147.50103 1699 ft 131 kts 187°
2026-05-07 11:38 -34.44491 147.50632 1453 ft 127 kts 78°
2026-05-07 11:38 -34.43771 147.51119 1165 ft 135 kts
2026-05-07 11:39 -34.42873 147.51294 930 ft 120 kts
2026-05-07 11:39 -34.42311 147.51399 911 ft 24 kts
2026-05-07 11:39 -34.42245 147.51411 911 ft 2 kts
2026-05-07 11:39 -34.42048 147.51450 906 ft 42 kts
2026-05-07 11:40 -34.41907 147.51488 905 ft 7 kts 71°
2026-05-07 11:40 -34.41918 147.51562 904 ft 6 kts 144°
2026-05-07 11:40 -34.42041 147.51543 907 ft 23 kts 189°
2026-05-07 11:40 -34.42194 147.51514 911 ft 21 kts 189°
2026-05-07 11:41 -34.42332 147.51486 911 ft 20 kts 188°
2026-05-07 11:41 -34.42470 147.51462 911 ft 20 kts 187°
2026-05-07 11:41 -34.42532 147.51480 912 ft 5 kts 107°
2026-05-07 11:41 -34.42537 147.51520 913 ft 2 kts 96°
2026-05-07 11:42 -34.42537 147.51522 913 ft 0 kts 95°
2026-05-07 11:47 -34.42537 147.51523 913 ft 1 kts 90°
2026-05-07 11:48 -34.42503 147.51535 912 ft 8 kts 358°
2026-05-07 11:48 -34.42463 147.51479 911 ft 13 kts 282°
2026-05-07 11:48 -34.42455 147.51383 910 ft 13 kts 249°
2026-05-07 11:48 -34.42531 147.51350 912 ft 12 kts 188°
2026-05-07 11:49 -34.42633 147.51330 915 ft 16 kts 189°
2026-05-07 11:49 -34.42739 147.51312 917 ft 14 kts 188°
2026-05-07 11:49 -34.42846 147.51290 923 ft 13 kts 189°
2026-05-07 11:49 -34.42931 147.51275 922 ft 12 kts 188°
2026-05-07 11:50 -34.43000 147.51255 923 ft 0 kts 189°
2026-05-07 11:50 -34.43008 147.51278 922 ft 7 kts 17°
2026-05-07 11:50 -34.42940 147.51279 924 ft 1 kts
2026-05-07 11:51 -34.42638 147.51336 915 ft 90 kts
2026-05-07 11:52 -34.41766 147.51504 992 ft 153 kts
2026-05-07 11:52 -34.40592 147.51754 1517 ft 187 kts
2026-05-07 11:52 -34.39245 147.52211 2145 ft 217 kts 31°
2026-05-07 11:52 -34.38512 147.53830 2492 ft 245 kts 97°
2026-05-07 11:53 -34.39642 147.55285 2433 ft 262 kts 167°
2026-05-07 11:53 -34.41501 147.55058 2253 ft 280 kts 197°
2026-05-07 11:53 -34.42727 147.54508 2182 ft 285 kts 204°
2026-05-07 11:53 -34.44850 147.52660 2254 ft 283 kts 231°
2026-05-07 11:54 -34.45505 147.51300 2261 ft 284 kts 249°
2026-05-07 11:54 -34.45627 147.48194 2187 ft 285 kts 290°
2026-05-07 11:54 -34.44628 147.46124 2116 ft 282 kts 304°
2026-05-07 11:54 -34.43416 147.44267 2060 ft 282 kts 320°
2026-05-07 11:55 -34.41611 147.44039 1984 ft 283 kts 36°
2026-05-07 11:55 -34.41131 147.46196 1794 ft 285 kts 107°
2026-05-07 11:55 -34.41810 147.48446 1569 ft 286 kts 104°
2026-05-07 11:55 -34.42068 147.50012 1435 ft 285 kts 100°
2026-05-07 11:56 -34.43319 147.51035 1297 ft 273 kts 192°
2026-05-07 11:56 -34.43820 147.50924 2970 ft 74 kts 28°
2026-05-07 11:56 -34.42317 147.51379 1236 ft 268 kts
2026-05-07 11:56 -34.41946 147.50469 1256 ft 243 kts 214°
2026-05-07 11:57 -34.42516 147.51363 1226 ft 234 kts 20°
2026-05-07 11:57 -34.40448 147.51085 1826 ft 233 kts 333°
2026-05-07 11:57 -34.39472 147.50462 1856 ft 242 kts 331°
2026-05-07 11:57 -34.37994 147.49478 2056 ft 242 kts 330°
2026-05-07 11:58 -34.36499 147.48507 2038 ft 246 kts 332°
2026-05-07 11:58 -34.34358 147.48090 2302 ft 253 kts 30°
2026-05-07 11:58 -34.34066 147.50007 1869 ft 280 kts 131°
2026-05-07 11:58 -34.35216 147.50808 1585 ft 290 kts 163°
2026-05-07 11:59 -34.37156 147.51416 1429 ft 292 kts 172°
2026-05-07 11:59 -34.39185 147.51485 1271 ft 292 kts 173°
2026-05-07 11:59 -34.41213 147.51573 1097 ft 293 kts 190°
2026-05-07 11:59 -34.43186 147.51245 1153 ft 280 kts 188°
2026-05-07 12:00 -34.45074 147.50901 1423 ft 270 kts 190°
2026-05-07 12:00 -34.46899 147.50499 1947 ft 259 kts 176°
2026-05-07 12:00 -34.47998 147.51966 1976 ft 273 kts 87°
2026-05-07 12:00 -34.47084 147.53977 1889 ft 285 kts 40°
2026-05-07 12:01 -34.45280 147.54839 1907 ft 284 kts
2026-05-07 12:01 -34.43492 147.53984 1848 ft 284 kts 312°
2026-05-07 12:01 -34.42813 147.51759 1474 ft 294 kts 282°
2026-05-07 12:01 -34.42532 147.49989 3633 ft 17 kts 125°
2026-05-07 12:02 -34.42600 147.50194 2285 ft 225 kts 11°
2026-05-07 12:02 -34.40981 147.50820 2034 ft 228 kts 35°
2026-05-07 12:02 -34.40232 147.52527 1726 ft 250 kts 83°
2026-05-07 12:02 -34.40095 147.54644 1728 ft 253 kts 70°
2026-05-07 12:03 -34.38828 147.56029 1859 ft 263 kts 11°
2026-05-07 12:03 -34.37099 147.55350 1600 ft 282 kts 313°
2026-05-07 12:03 -34.36857 147.53191 1537 ft 282 kts 239°
2026-05-07 12:03 -34.38490 147.52007 1412 ft 287 kts 189°
2026-05-07 12:04 -34.40453 147.51664 1289 ft 290 kts 188°
2026-05-07 12:04 -34.42415 147.51383 1304 ft 281 kts 187°
2026-05-07 12:04 -34.44348 147.51109 1379 ft 276 kts 187°
2026-05-07 12:04 -34.46238 147.50765 1553 ft 278 kts 189°
2026-05-07 12:05 -34.48176 147.50589 1708 ft 281 kts 168°
2026-05-07 12:05 -34.49495 147.52154 1946 ft 281 kts 104°
2026-05-07 12:05 -34.49252 147.54459 2116 ft 283 kts 60°
2026-05-07 12:05 -34.47872 147.56120 2252 ft 284 kts 28°
2026-05-07 12:06 -34.45950 147.56538 2338 ft 285 kts 355°
2026-05-07 12:06 -34.44019 147.56054 2150 ft 289 kts 346°
2026-05-07 12:06 -34.42054 147.55381 2044 ft 294 kts 343°
2026-05-07 12:06 -34.40182 147.55410 3054 ft 268 kts 36°
2026-05-07 12:07 -34.40334 147.57240 2702 ft 289 kts 165°
2026-05-07 12:07 -34.42163 147.56090 1554 ft 328 kts 234°
2026-05-07 12:07 -34.42774 147.53476 1233 ft 327 kts 270°
2026-05-07 12:07 -34.42552 147.50753 1143 ft 318 kts 276°
2026-05-07 12:08 -34.42742 147.49962 5291 ft 128 kts 185°
2026-05-07 12:08 -34.42183 147.50283 1431 ft 318 kts 17°
2026-05-07 12:08 -34.40078 147.51128 1554 ft 316 kts 21°
2026-05-07 12:08 -34.38909 147.52963 1610 ft 307 kts 121°
2026-05-07 12:09 -34.40869 147.53410 1532 ft 305 kts 188°
2026-05-07 12:09 -34.42975 147.53040 1609 ft 303 kts 190°
2026-05-07 12:09 -34.45030 147.52716 1775 ft 292 kts 188°
2026-05-07 12:09 -34.47025 147.52370 1841 ft 289 kts 191°
2026-05-07 12:10 -34.49023 147.52189 2063 ft 288 kts 182°
2026-05-07 12:10 -34.50819 147.51683 2363 ft 253 kts 226°
2026-05-07 12:10 -34.50358 147.50010 2127 ft 289 kts 342°
2026-05-07 12:10 -34.48312 147.50379 1804 ft 299 kts
2026-05-07 12:11 -34.46279 147.50756 1600 ft 297 kts
2026-05-07 12:11 -34.44220 147.51080 1385 ft 299 kts
2026-05-07 12:11 -34.42189 147.51351 1631 ft 263 kts 332°
2026-05-07 12:11 -34.42830 147.50530 1780 ft 168 kts 192°
2026-05-07 12:12 -34.43838 147.50384 1712 ft 129 kts 183°
2026-05-07 12:12 -34.43976 147.51097 1332 ft 124 kts
2026-05-07 12:12 -34.43109 147.51251 982 ft 122 kts
2026-05-07 12:12 -34.42394 147.51388 910 ft 87 kts
2026-05-07 12:13 -34.41942 147.51471 905 ft 30 kts 10°
2026-05-07 12:13 -34.41907 147.51510 905 ft 14 kts 122°
2026-05-07 12:13 -34.41939 147.51563 904 ft 14 kts 188°
2026-05-07 12:13 -34.42083 147.51535 907 ft 21 kts 188°
2026-05-07 12:14 -34.42225 147.51507 911 ft 20 kts 189°
2026-05-07 12:14 -34.42365 147.51478 911 ft 21 kts 189°
2026-05-07 12:14 -34.42503 147.51459 911 ft 13 kts 177°
2026-05-07 12:14 -34.42536 147.51512 913 ft 1 kts 96°
2026-05-07 12:15 -34.42537 147.51522 913 ft 0 kts 96°